sensor_id;sensor_type;location;lat;lon;timestamp;P1;durP1;ratioP1;P2;durP2;ratioP2
45688;SDS011;31400;48.132;20.872;2024-01-15T00:00:01;36.97;;;19.17;;
45688;SDS011;31400;48.132;20.872;2024-01-15T00:02:28;34.58;;;18.95;;
45688;SDS011;31400;48.132;20.872;2024-01-15T00:04:54;44.53;;;19.23;;
45688;SDS011;31400;48.132;20.872;2024-01-15T00:07:20;37.45;;;19.67;;
45688;SDS011;31400;48.132;20.872;2024-01-15T00:09:46;37.15;;;20.77;;
45688;SDS011;31400;48.132;20.872;2024-01-15T00:12:12;40.55;;;22.13;;
45688;SDS011;31400;48.132;20.872;2024-01-15T00:14:38;45.67;;;22.45;;
45688;SDS011;31400;48.132;20.872;2024-01-15T00:17:04;47.67;;;25.45;;
45688;SDS011;31400;48.132;20.872;2024-01-15T00:19:30;47.25;;;25.70;;
45688;SDS011;31400;48.132;20.872;2024-01-15T00:21:57;46.38;;;23.45;;
45688;SDS011;31400;48.132;20.872;2024-01-15T00:24:24;40.13;;;23.27;;
45688;SDS011;31400;48.132;20.872;2024-01-15T00:26:50;36.55;;;22.02;;
45688;SDS011;31400;48.132;20.872;2024-01-15T00:29:16;41.75;;;22.67;;
45688;SDS011;31400;48.132;20.872;2024-01-15T00:31:42;36.92;;;19.60;;
45688;SDS011;31400;48.132;20.872;2024-01-15T00:34:08;42.00;;;21.73;;
45688;SDS011;31400;48.132;20.872;2024-01-15T00:36:34;42.92;;;23.08;;
45688;SDS011;31400;48.132;20.872;2024-01-15T00:39:00;48.38;;;23.83;;
45688;SDS011;31400;48.132;20.872;2024-01-15T00:41:26;48.65;;;25.33;;
45688;SDS011;31400;48.132;20.872;2024-01-15T00:43:53;41.70;;;23.05;;
45688;SDS011;31400;48.132;20.872;2024-01-15T00:46:19;53.25;;;26.65;;
45688;SDS011;31400;48.132;20.872;2024-01-15T00:48:45;41.45;;;23.25;;
45688;SDS011;31400;48.132;20.872;2024-01-15T00:51:11;52.45;;;26.42;;
45688;SDS011;31400;48.132;20.872;2024-01-15T00:53:38;39.67;;;25.60;;
45688;SDS011;31400;48.132;20.872;2024-01-15T00:56:04;45.42;;;26.20;;
45688;SDS011;31400;48.132;20.872;2024-01-15T00:58:30;52.38;;;23.50;;
45688;SDS011;31400;48.132;20.872;2024-01-15T01:00:56;36.60;;;19.45;;
45688;SDS011;31400;48.132;20.872;2024-01-15T01:03:22;43.60;;;24.42;;
45688;SDS011;31400;48.132;20.872;2024-01-15T01:05:48;48.92;;;26.73;;
45688;SDS011;31400;48.132;20.872;2024-01-15T01:08:17;48.80;;;25.33;;
45688;SDS011;31400;48.132;20.872;2024-01-15T01:10:43;46.45;;;26.58;;
45688;SDS011;31400;48.132;20.872;2024-01-15T01:13:09;49.42;;;26.83;;
45688;SDS011;31400;48.132;20.872;2024-01-15T01:15:35;45.78;;;24.17;;
45688;SDS011;31400;48.132;20.872;2024-01-15T01:18:01;61.30;;;27.35;;
45688;SDS011;31400;48.132;20.872;2024-01-15T01:20:28;48.10;;;27.95;;
45688;SDS011;31400;48.132;20.872;2024-01-15T01:22:54;51.50;;;25.55;;
45688;SDS011;31400;48.132;20.872;2024-01-15T01:25:19;52.28;;;26.40;;
45688;SDS011;31400;48.132;20.872;2024-01-15T01:27:46;52.80;;;26.70;;
45688;SDS011;31400;48.132;20.872;2024-01-15T01:30:11;58.22;;;26.55;;
45688;SDS011;31400;48.132;20.872;2024-01-15T01:32:38;52.65;;;25.38;;
45688;SDS011;31400;48.132;20.872;2024-01-15T01:35:04;43.78;;;27.30;;
45688;SDS011;31400;48.132;20.872;2024-01-15T01:37:30;54.53;;;27.08;;
45688;SDS011;31400;48.132;20.872;2024-01-15T01:39:56;53.55;;;25.85;;
45688;SDS011;31400;48.132;20.872;2024-01-15T01:42:22;56.17;;;28.52;;
45688;SDS011;31400;48.132;20.872;2024-01-15T01:44:48;49.63;;;26.52;;
45688;SDS011;31400;48.132;20.872;2024-01-15T01:47:14;45.95;;;23.92;;
45688;SDS011;31400;48.132;20.872;2024-01-15T01:49:40;43.95;;;24.90;;
45688;SDS011;31400;48.132;20.872;2024-01-15T01:52:06;45.13;;;26.25;;
45688;SDS011;31400;48.132;20.872;2024-01-15T01:54:32;56.97;;;26.17;;
45688;SDS011;31400;48.132;20.872;2024-01-15T01:56:58;46.88;;;22.90;;
45688;SDS011;31400;48.132;20.872;2024-01-15T01:59:28;54.90;;;28.00;;
45688;SDS011;31400;48.132;20.872;2024-01-15T02:01:54;51.70;;;25.90;;
45688;SDS011;31400;48.132;20.872;2024-01-15T02:06:46;64.43;;;26.70;;
45688;SDS011;31400;48.132;20.872;2024-01-15T02:09:12;51.42;;;25.95;;
45688;SDS011;31400;48.132;20.872;2024-01-15T02:11:40;59.90;;;27.17;;
45688;SDS011;31400;48.132;20.872;2024-01-15T02:16:32;46.75;;;24.85;;
45688;SDS011;31400;48.132;20.872;2024-01-15T02:18:58;51.60;;;25.15;;
45688;SDS011;31400;48.132;20.872;2024-01-15T02:21:24;42.30;;;25.10;;
45688;SDS011;31400;48.132;20.872;2024-01-15T02:23:53;48.08;;;25.55;;
45688;SDS011;31400;48.132;20.872;2024-01-15T02:26:19;48.40;;;24.63;;
45688;SDS011;31400;48.132;20.872;2024-01-15T02:28:47;46.67;;;24.80;;
45688;SDS011;31400;48.132;20.872;2024-01-15T02:33:39;49.08;;;23.90;;
45688;SDS011;31400;48.132;20.872;2024-01-15T02:36:06;47.78;;;27.00;;
45688;SDS011;31400;48.132;20.872;2024-01-15T02:38:32;48.58;;;25.58;;
45688;SDS011;31400;48.132;20.872;2024-01-15T02:40:58;53.13;;;25.30;;
45688;SDS011;31400;48.132;20.872;2024-01-15T02:43:24;47.13;;;23.60;;
45688;SDS011;31400;48.132;20.872;2024-01-15T02:45:50;42.38;;;24.35;;
45688;SDS011;31400;48.132;20.872;2024-01-15T02:48:16;45.60;;;27.23;;
45688;SDS011;31400;48.132;20.872;2024-01-15T02:50:42;49.25;;;28.42;;
45688;SDS011;31400;48.132;20.872;2024-01-15T02:53:08;43.25;;;26.15;;
45688;SDS011;31400;48.132;20.872;2024-01-15T02:55:34;50.17;;;27.40;;
45688;SDS011;31400;48.132;20.872;2024-01-15T02:58:00;54.28;;;28.58;;
45688;SDS011;31400;48.132;20.872;2024-01-15T03:00:26;52.28;;;27.25;;
45688;SDS011;31400;48.132;20.872;2024-01-15T03:02:52;45.30;;;27.90;;
45688;SDS011;31400;48.132;20.872;2024-01-15T03:05:18;57.15;;;29.38;;
45688;SDS011;31400;48.132;20.872;2024-01-15T03:10:11;56.75;;;31.08;;
45688;SDS011;31400;48.132;20.872;2024-01-15T03:12:37;63.92;;;32.30;;
45688;SDS011;31400;48.132;20.872;2024-01-15T03:15:03;59.72;;;29.83;;
45688;SDS011;31400;48.132;20.872;2024-01-15T03:17:29;44.47;;;27.40;;
45688;SDS011;31400;48.132;20.872;2024-01-15T03:19:55;50.83;;;30.50;;
45688;SDS011;31400;48.132;20.872;2024-01-15T03:22:21;56.42;;;31.65;;
45688;SDS011;31400;48.132;20.872;2024-01-15T03:24:47;49.75;;;28.95;;
45688;SDS011;31400;48.132;20.872;2024-01-15T03:27:13;44.80;;;25.60;;
45688;SDS011;31400;48.132;20.872;2024-01-15T03:29:39;42.58;;;25.30;;
45688;SDS011;31400;48.132;20.872;2024-01-15T03:32:05;56.05;;;31.45;;
45688;SDS011;31400;48.132;20.872;2024-01-15T03:34:31;58.33;;;33.88;;
45688;SDS011;31400;48.132;20.872;2024-01-15T03:36:57;71.22;;;36.30;;
45688;SDS011;31400;48.132;20.872;2024-01-15T03:41:50;55.90;;;31.02;;
45688;SDS011;31400;48.132;20.872;2024-01-15T03:44:16;63.33;;;32.83;;
45688;SDS011;31400;48.132;20.872;2024-01-15T03:46:42;56.97;;;29.40;;
45688;SDS011;31400;48.132;20.872;2024-01-15T03:49:08;52.83;;;24.05;;
45688;SDS011;31400;48.132;20.872;2024-01-15T03:51:34;56.03;;;31.58;;
45688;SDS011;31400;48.132;20.872;2024-01-15T03:53:59;57.10;;;32.60;;
45688;SDS011;31400;48.132;20.872;2024-01-15T03:56:25;54.05;;;30.90;;
45688;SDS011;31400;48.132;20.872;2024-01-15T03:58:51;58.20;;;30.00;;
45688;SDS011;31400;48.132;20.872;2024-01-15T04:01:17;50.33;;;29.90;;
45688;SDS011;31400;48.132;20.872;2024-01-15T04:03:43;44.88;;;23.08;;
45688;SDS011;31400;48.132;20.872;2024-01-15T04:06:09;61.15;;;33.00;;
45688;SDS011;31400;48.132;20.872;2024-01-15T04:08:35;47.25;;;29.77;;
45688;SDS011;31400;48.132;20.872;2024-01-15T04:11:01;55.03;;;28.00;;
45688;SDS011;31400;48.132;20.872;2024-01-15T04:13:27;52.33;;;29.50;;
45688;SDS011;31400;48.132;20.872;2024-01-15T04:15:53;47.20;;;29.77;;
45688;SDS011;31400;48.132;20.872;2024-01-15T04:18:19;53.28;;;29.05;;
45688;SDS011;31400;48.132;20.872;2024-01-15T04:20:45;53.28;;;29.55;;
45688;SDS011;31400;48.132;20.872;2024-01-15T04:23:11;51.95;;;30.15;;
45688;SDS011;31400;48.132;20.872;2024-01-15T04:25:37;52.72;;;30.90;;
45688;SDS011;31400;48.132;20.872;2024-01-15T04:28:07;51.83;;;29.85;;
45688;SDS011;31400;48.132;20.872;2024-01-15T04:30:33;52.95;;;27.80;;
45688;SDS011;31400;48.132;20.872;2024-01-15T04:32:59;46.80;;;29.85;;
45688;SDS011;31400;48.132;20.872;2024-01-15T04:35:25;50.55;;;30.98;;
45688;SDS011;31400;48.132;20.872;2024-01-15T04:37:51;54.10;;;29.33;;
45688;SDS011;31400;48.132;20.872;2024-01-15T04:43:02;54.95;;;30.02;;
45688;SDS011;31400;48.132;20.872;2024-01-15T04:45:28;56.58;;;31.50;;
45688;SDS011;31400;48.132;20.872;2024-01-15T04:50:22;61.95;;;34.40;;
45688;SDS011;31400;48.132;20.872;2024-01-15T04:52:48;41.38;;;23.42;;
45688;SDS011;31400;48.132;20.872;2024-01-15T04:55:14;61.40;;;35.13;;
45688;SDS011;31400;48.132;20.872;2024-01-15T04:57:40;68.22;;;35.47;;
45688;SDS011;31400;48.132;20.872;2024-01-15T05:00:06;60.42;;;34.95;;
45688;SDS011;31400;48.132;20.872;2024-01-15T05:02:32;62.13;;;34.78;;
45688;SDS011;31400;48.132;20.872;2024-01-15T05:04:58;73.25;;;36.42;;
45688;SDS011;31400;48.132;20.872;2024-01-15T05:07:24;50.55;;;25.75;;
45688;SDS011;31400;48.132;20.872;2024-01-15T05:12:54;69.80;;;37.22;;
45688;SDS011;31400;48.132;20.872;2024-01-15T05:15:20;77.15;;;33.17;;
45688;SDS011;31400;48.132;20.872;2024-01-15T05:17:46;72.32;;;39.03;;
45688;SDS011;31400;48.132;20.872;2024-01-15T05:20:12;56.85;;;33.08;;
45688;SDS011;31400;48.132;20.872;2024-01-15T05:22:38;59.08;;;34.92;;
45688;SDS011;31400;48.132;20.872;2024-01-15T05:25:04;75.45;;;39.67;;
45688;SDS011;31400;48.132;20.872;2024-01-15T05:27:30;75.35;;;38.47;;
45688;SDS011;31400;48.132;20.872;2024-01-15T05:29:56;77.65;;;39.33;;
45688;SDS011;31400;48.132;20.872;2024-01-15T05:32:22;73.57;;;42.35;;
45688;SDS011;31400;48.132;20.872;2024-01-15T05:34:48;76.80;;;42.58;;
45688;SDS011;31400;48.132;20.872;2024-01-15T05:37:14;70.47;;;39.60;;
45688;SDS011;31400;48.132;20.872;2024-01-15T05:39:40;82.43;;;41.15;;
45688;SDS011;31400;48.132;20.872;2024-01-15T05:42:06;86.38;;;41.83;;
45688;SDS011;31400;48.132;20.872;2024-01-15T05:44:32;83.22;;;44.30;;
45688;SDS011;31400;48.132;20.872;2024-01-15T05:46:58;84.65;;;45.92;;
45688;SDS011;31400;48.132;20.872;2024-01-15T05:49:24;82.60;;;41.78;;
45688;SDS011;31400;48.132;20.872;2024-01-15T05:51:50;59.10;;;33.03;;
45688;SDS011;31400;48.132;20.872;2024-01-15T05:54:17;84.28;;;45.90;;
45688;SDS011;31400;48.132;20.872;2024-01-15T05:56:44;77.75;;;42.85;;
45688;SDS011;31400;48.132;20.872;2024-01-15T05:59:10;80.03;;;44.88;;
45688;SDS011;31400;48.132;20.872;2024-01-15T06:01:36;79.72;;;44.85;;
45688;SDS011;31400;48.132;20.872;2024-01-15T06:04:02;77.55;;;41.60;;
45688;SDS011;31400;48.132;20.872;2024-01-15T06:06:28;89.95;;;47.65;;
45688;SDS011;31400;48.132;20.872;2024-01-15T06:08:54;76.82;;;43.08;;
45688;SDS011;31400;48.132;20.872;2024-01-15T06:11:20;80.65;;;45.20;;
45688;SDS011;31400;48.132;20.872;2024-01-15T06:13:46;75.03;;;43.13;;
45688;SDS011;31400;48.132;20.872;2024-01-15T06:16:16;74.30;;;41.03;;
45688;SDS011;31400;48.132;20.872;2024-01-15T06:18:44;78.53;;;44.22;;
45688;SDS011;31400;48.132;20.872;2024-01-15T06:21:10;82.85;;;47.90;;
45688;SDS011;31400;48.132;20.872;2024-01-15T06:23:37;87.22;;;47.45;;
45688;SDS011;31400;48.132;20.872;2024-01-15T06:26:04;78.28;;;42.90;;
45688;SDS011;31400;48.132;20.872;2024-01-15T06:30:56;82.35;;;46.95;;
45688;SDS011;31400;48.132;20.872;2024-01-15T06:33:23;97.50;;;50.58;;
45688;SDS011;31400;48.132;20.872;2024-01-15T06:35:49;89.20;;;48.92;;
45688;SDS011;31400;48.132;20.872;2024-01-15T06:38:16;92.90;;;49.50;;
45688;SDS011;31400;48.132;20.872;2024-01-15T06:40:42;82.60;;;45.67;;
45688;SDS011;31400;48.132;20.872;2024-01-15T06:43:13;69.70;;;43.83;;
45688;SDS011;31400;48.132;20.872;2024-01-15T06:45:39;73.78;;;43.38;;
45688;SDS011;31400;48.132;20.872;2024-01-15T06:48:08;81.82;;;46.10;;
45688;SDS011;31400;48.132;20.872;2024-01-15T06:50:36;86.40;;;47.80;;
45688;SDS011;31400;48.132;20.872;2024-01-15T06:53:02;84.30;;;46.28;;
45688;SDS011;31400;48.132;20.872;2024-01-15T06:55:31;83.25;;;43.70;;
45688;SDS011;31400;48.132;20.872;2024-01-15T06:57:57;69.07;;;41.50;;
45688;SDS011;31400;48.132;20.872;2024-01-15T07:00:23;67.47;;;40.60;;
45688;SDS011;31400;48.132;20.872;2024-01-15T07:02:49;87.10;;;44.53;;
45688;SDS011;31400;48.132;20.872;2024-01-15T07:05:15;79.38;;;41.25;;
45688;SDS011;31400;48.132;20.872;2024-01-15T07:07:41;74.55;;;39.97;;
45688;SDS011;31400;48.132;20.872;2024-01-15T07:10:13;67.18;;;37.17;;
45688;SDS011;31400;48.132;20.872;2024-01-15T07:12:43;84.75;;;42.00;;
45688;SDS011;31400;48.132;20.872;2024-01-15T07:15:09;66.40;;;40.58;;
45688;SDS011;31400;48.132;20.872;2024-01-15T07:17:35;87.97;;;46.42;;
45688;SDS011;31400;48.132;20.872;2024-01-15T07:20:04;90.78;;;47.03;;
45688;SDS011;31400;48.132;20.872;2024-01-15T07:22:32;77.13;;;45.40;;
45688;SDS011;31400;48.132;20.872;2024-01-15T07:24:58;54.22;;;31.45;;
45688;SDS011;31400;48.132;20.872;2024-01-15T07:27:24;74.15;;;38.42;;
45688;SDS011;31400;48.132;20.872;2024-01-15T07:29:50;81.78;;;43.47;;
45688;SDS011;31400;48.132;20.872;2024-01-15T07:32:17;75.82;;;41.30;;
45688;SDS011;31400;48.132;20.872;2024-01-15T07:34:43;91.60;;;43.55;;
45688;SDS011;31400;48.132;20.872;2024-01-15T07:37:09;59.33;;;34.55;;
45688;SDS011;31400;48.132;20.872;2024-01-15T07:39:35;77.75;;;42.25;;
45688;SDS011;31400;48.132;20.872;2024-01-15T07:42:01;93.43;;;46.38;;
45688;SDS011;31400;48.132;20.872;2024-01-15T07:44:27;73.15;;;44.28;;
45688;SDS011;31400;48.132;20.872;2024-01-15T07:46:53;85.00;;;42.92;;
45688;SDS011;31400;48.132;20.872;2024-01-15T07:49:19;59.55;;;30.15;;
45688;SDS011;31400;48.132;20.872;2024-01-15T07:51:45;68.13;;;41.05;;
45688;SDS011;31400;48.132;20.872;2024-01-15T07:54:11;79.53;;;44.95;;
45688;SDS011;31400;48.132;20.872;2024-01-15T07:56:56;88.78;;;48.08;;
45688;SDS011;31400;48.132;20.872;2024-01-15T07:59:24;68.05;;;40.53;;
45688;SDS011;31400;48.132;20.872;2024-01-15T08:01:54;75.28;;;41.55;;
45688;SDS011;31400;48.132;20.872;2024-01-15T08:04:24;77.95;;;43.63;;
45688;SDS011;31400;48.132;20.872;2024-01-15T08:06:50;77.90;;;45.28;;
45688;SDS011;31400;48.132;20.872;2024-01-15T08:09:17;84.15;;;44.10;;
45688;SDS011;31400;48.132;20.872;2024-01-15T08:11:43;90.82;;;43.67;;
45688;SDS011;31400;48.132;20.872;2024-01-15T08:14:09;81.75;;;41.75;;
45688;SDS011;31400;48.132;20.872;2024-01-15T08:19:01;76.65;;;40.08;;
45688;SDS011;31400;48.132;20.872;2024-01-15T08:21:28;78.60;;;42.03;;
45688;SDS011;31400;48.132;20.872;2024-01-15T08:23:56;82.13;;;43.17;;
45688;SDS011;31400;48.132;20.872;2024-01-15T08:26:22;56.03;;;32.22;;
45688;SDS011;31400;48.132;20.872;2024-01-15T08:28:51;59.53;;;32.47;;
45688;SDS011;31400;48.132;20.872;2024-01-15T08:31:17;62.45;;;35.22;;
45688;SDS011;31400;48.132;20.872;2024-01-15T08:33:43;57.47;;;32.75;;
45688;SDS011;31400;48.132;20.872;2024-01-15T08:36:09;72.63;;;40.50;;
45688;SDS011;31400;48.132;20.872;2024-01-15T08:38:35;64.03;;;41.08;;
45688;SDS011;31400;48.132;20.872;2024-01-15T08:41:01;60.00;;;35.92;;
45688;SDS011;31400;48.132;20.872;2024-01-15T08:43:30;59.05;;;35.30;;
45688;SDS011;31400;48.132;20.872;2024-01-15T08:45:56;53.92;;;32.10;;
45688;SDS011;31400;48.132;20.872;2024-01-15T08:48:22;51.63;;;30.75;;
45688;SDS011;31400;48.132;20.872;2024-01-15T08:50:50;54.53;;;32.53;;
45688;SDS011;31400;48.132;20.872;2024-01-15T08:53:16;53.83;;;31.38;;
45688;SDS011;31400;48.132;20.872;2024-01-15T08:55:45;51.25;;;32.88;;
45688;SDS011;31400;48.132;20.872;2024-01-15T08:58:11;58.00;;;32.42;;
45688;SDS011;31400;48.132;20.872;2024-01-15T09:00:37;51.45;;;29.73;;
45688;SDS011;31400;48.132;20.872;2024-01-15T09:03:03;46.50;;;28.33;;
45688;SDS011;31400;48.132;20.872;2024-01-15T09:05:29;52.47;;;28.35;;
45688;SDS011;31400;48.132;20.872;2024-01-15T09:07:55;47.83;;;26.73;;
45688;SDS011;31400;48.132;20.872;2024-01-15T09:10:21;39.72;;;25.48;;
45688;SDS011;31400;48.132;20.872;2024-01-15T09:12:48;42.85;;;24.25;;
45688;SDS011;31400;48.132;20.872;2024-01-15T09:15:17;43.40;;;24.92;;
45688;SDS011;31400;48.132;20.872;2024-01-15T09:17:43;44.92;;;28.00;;
45688;SDS011;31400;48.132;20.872;2024-01-15T09:20:09;48.13;;;29.17;;
45688;SDS011;31400;48.132;20.872;2024-01-15T09:22:38;41.75;;;27.23;;
45688;SDS011;31400;48.132;20.872;2024-01-15T09:25:07;47.90;;;29.00;;
45688;SDS011;31400;48.132;20.872;2024-01-15T09:27:37;54.35;;;31.95;;
45688;SDS011;31400;48.132;20.872;2024-01-15T09:30:03;37.72;;;24.63;;
45688;SDS011;31400;48.132;20.872;2024-01-15T09:32:30;34.65;;;23.25;;
45688;SDS011;31400;48.132;20.872;2024-01-15T09:34:56;42.50;;;25.30;;
45688;SDS011;31400;48.132;20.872;2024-01-15T09:39:51;45.10;;;26.27;;
45688;SDS011;31400;48.132;20.872;2024-01-15T09:44:42;37.40;;;22.05;;
45688;SDS011;31400;48.132;20.872;2024-01-15T09:47:09;33.22;;;20.67;;
45688;SDS011;31400;48.132;20.872;2024-01-15T09:49:35;30.55;;;21.38;;
45688;SDS011;31400;48.132;20.872;2024-01-15T09:52:03;38.83;;;23.75;;
45688;SDS011;31400;48.132;20.872;2024-01-15T09:54:29;36.83;;;20.67;;
45688;SDS011;31400;48.132;20.872;2024-01-15T09:59:22;34.92;;;21.13;;
45688;SDS011;31400;48.132;20.872;2024-01-15T10:01:48;31.70;;;22.80;;
45688;SDS011;31400;48.132;20.872;2024-01-15T10:04:16;36.67;;;24.10;;
45688;SDS011;31400;48.132;20.872;2024-01-15T10:09:07;36.35;;;21.70;;
45688;SDS011;31400;48.132;20.872;2024-01-15T10:14:00;36.00;;;20.17;;
45688;SDS011;31400;48.132;20.872;2024-01-15T10:16:26;21.25;;;13.40;;
45688;SDS011;31400;48.132;20.872;2024-01-15T10:18:52;19.92;;;12.40;;
45688;SDS011;31400;48.132;20.872;2024-01-15T10:21:19;16.92;;;11.73;;
45688;SDS011;31400;48.132;20.872;2024-01-15T10:23:45;20.48;;;11.80;;
45688;SDS011;31400;48.132;20.872;2024-01-15T10:26:12;22.23;;;10.57;;
45688;SDS011;31400;48.132;20.872;2024-01-15T10:31:04;19.20;;;11.95;;
45688;SDS011;31400;48.132;20.872;2024-01-15T10:33:30;18.65;;;11.02;;
45688;SDS011;31400;48.132;20.872;2024-01-15T10:35:57;22.23;;;11.75;;
45688;SDS011;31400;48.132;20.872;2024-01-15T10:40:55;30.45;;;14.18;;
45688;SDS011;31400;48.132;20.872;2024-01-15T10:43:22;24.67;;;13.55;;
45688;SDS011;31400;48.132;20.872;2024-01-15T10:45:49;25.48;;;15.90;;
45688;SDS011;31400;48.132;20.872;2024-01-15T10:48:16;32.25;;;14.27;;
45688;SDS011;31400;48.132;20.872;2024-01-15T10:50:42;23.42;;;14.90;;
45688;SDS011;31400;48.132;20.872;2024-01-15T10:53:09;22.50;;;13.05;;
45688;SDS011;31400;48.132;20.872;2024-01-15T10:55:37;17.60;;;11.82;;
45688;SDS011;31400;48.132;20.872;2024-01-15T10:58:06;15.85;;;9.50;;
45688;SDS011;31400;48.132;20.872;2024-01-15T11:00:35;18.55;;;11.00;;
45688;SDS011;31400;48.132;20.872;2024-01-15T11:03:02;21.05;;;10.38;;
45688;SDS011;31400;48.132;20.872;2024-01-15T11:05:33;18.02;;;10.82;;
45688;SDS011;31400;48.132;20.872;2024-01-15T11:07:59;17.67;;;11.55;;
45688;SDS011;31400;48.132;20.872;2024-01-15T11:16:03;21.42;;;9.38;;
45688;SDS011;31400;48.132;20.872;2024-01-15T11:18:32;22.35;;;10.13;;
45688;SDS011;31400;48.132;20.872;2024-01-15T11:23:46;17.38;;;11.20;;
45688;SDS011;31400;48.132;20.872;2024-01-15T11:29:02;17.85;;;10.07;;
45688;SDS011;31400;48.132;20.872;2024-01-15T11:31:29;20.30;;;11.68;;
45688;SDS011;31400;48.132;20.872;2024-01-15T11:33:55;14.00;;;9.75;;
45688;SDS011;31400;48.132;20.872;2024-01-15T11:37:00;20.70;;;9.80;;
45688;SDS011;31400;48.132;20.872;2024-01-15T11:39:39;21.77;;;10.20;;
45688;SDS011;31400;48.132;20.872;2024-01-15T11:41:57;43.25;;;22.95;;
45688;SDS011;31400;48.132;20.872;2024-01-15T11:44:23;34.38;;;14.98;;
45688;SDS011;31400;48.132;20.872;2024-01-15T11:47:02;26.05;;;13.32;;
45688;SDS011;31400;48.132;20.872;2024-01-15T11:52:14;18.67;;;9.18;;
45688;SDS011;31400;48.132;20.872;2024-01-15T11:54:43;16.63;;;9.18;;
45688;SDS011;31400;48.132;20.872;2024-01-15T11:57:13;18.35;;;10.05;;
45688;SDS011;31400;48.132;20.872;2024-01-15T11:59:43;16.38;;;10.57;;
45688;SDS011;31400;48.132;20.872;2024-01-15T12:02:09;28.77;;;11.50;;
45688;SDS011;31400;48.132;20.872;2024-01-15T12:04:38;19.55;;;7.85;;
45688;SDS011;31400;48.132;20.872;2024-01-15T12:07:04;23.73;;;9.73;;
45688;SDS011;31400;48.132;20.872;2024-01-15T12:09:30;19.25;;;9.38;;
45688;SDS011;31400;48.132;20.872;2024-01-15T12:12:02;19.83;;;12.40;;
45688;SDS011;31400;48.132;20.872;2024-01-15T12:14:32;17.13;;;11.10;;
45688;SDS011;31400;48.132;20.872;2024-01-15T12:16:59;16.63;;;10.65;;
45688;SDS011;31400;48.132;20.872;2024-01-15T12:19:25;10.73;;;6.97;;
45688;SDS011;31400;48.132;20.872;2024-01-15T12:21:51;11.00;;;6.97;;
45688;SDS011;31400;48.132;20.872;2024-01-15T12:24:17;11.48;;;7.13;;
45688;SDS011;31400;48.132;20.872;2024-01-15T12:29:10;11.20;;;7.30;;
45688;SDS011;31400;48.132;20.872;2024-01-15T12:31:36;10.50;;;5.68;;
45688;SDS011;31400;48.132;20.872;2024-01-15T12:36:31;16.10;;;5.15;;
45688;SDS011;31400;48.132;20.872;2024-01-15T12:39:00;10.82;;;6.32;;
45688;SDS011;31400;48.132;20.872;2024-01-15T12:41:27;11.20;;;5.28;;
45688;SDS011;31400;48.132;20.872;2024-01-15T12:43:53;9.30;;;5.50;;
45688;SDS011;31400;48.132;20.872;2024-01-15T12:46:19;11.48;;;6.28;;
45688;SDS011;31400;48.132;20.872;2024-01-15T12:51:11;13.75;;;6.40;;
45688;SDS011;31400;48.132;20.872;2024-01-15T12:56:03;9.80;;;6.18;;
45688;SDS011;31400;48.132;20.872;2024-01-15T12:58:29;9.43;;;5.28;;
45688;SDS011;31400;48.132;20.872;2024-01-15T13:03:22;12.50;;;7.55;;
45688;SDS011;31400;48.132;20.872;2024-01-15T13:05:48;17.30;;;5.53;;
45688;SDS011;31400;48.132;20.872;2024-01-15T13:08:14;9.60;;;6.03;;
45688;SDS011;31400;48.132;20.872;2024-01-15T13:13:07;11.35;;;5.90;;
45688;SDS011;31400;48.132;20.872;2024-01-15T13:17:59;18.42;;;7.72;;
45688;SDS011;31400;48.132;20.872;2024-01-15T13:20:25;12.02;;;6.78;;
45688;SDS011;31400;48.132;20.872;2024-01-15T13:22:51;11.07;;;6.28;;
45688;SDS011;31400;48.132;20.872;2024-01-15T13:25:17;15.48;;;7.57;;
45688;SDS011;31400;48.132;20.872;2024-01-15T13:30:10;17.08;;;7.05;;
45688;SDS011;31400;48.132;20.872;2024-01-15T13:32:37;24.45;;;7.13;;
45688;SDS011;31400;48.132;20.872;2024-01-15T13:35:03;10.80;;;6.15;;
45688;SDS011;31400;48.132;20.872;2024-01-15T13:37:34;14.15;;;6.72;;
45688;SDS011;31400;48.132;20.872;2024-01-15T13:40:02;9.70;;;6.10;;
45688;SDS011;31400;48.132;20.872;2024-01-15T13:42:28;16.70;;;5.25;;
45688;SDS011;31400;48.132;20.872;2024-01-15T13:44:54;9.50;;;5.65;;
45688;SDS011;31400;48.132;20.872;2024-01-15T13:49:46;9.13;;;5.20;;
45688;SDS011;31400;48.132;20.872;2024-01-15T13:52:12;16.83;;;6.95;;
45688;SDS011;31400;48.132;20.872;2024-01-15T13:54:38;14.15;;;7.43;;
45688;SDS011;31400;48.132;20.872;2024-01-15T13:57:04;33.65;;;15.00;;
45688;SDS011;31400;48.132;20.872;2024-01-15T13:59:31;17.52;;;6.95;;
45688;SDS011;31400;48.132;20.872;2024-01-15T14:01:57;16.35;;;9.50;;
45688;SDS011;31400;48.132;20.872;2024-01-15T14:04:23;20.48;;;7.43;;
45688;SDS011;31400;48.132;20.872;2024-01-15T14:06:49;13.75;;;6.90;;
45688;SDS011;31400;48.132;20.872;2024-01-15T14:09:15;8.52;;;5.70;;
45688;SDS011;31400;48.132;20.872;2024-01-15T14:11:41;10.25;;;5.80;;
45688;SDS011;31400;48.132;20.872;2024-01-15T14:14:07;14.65;;;7.05;;
45688;SDS011;31400;48.132;20.872;2024-01-15T14:16:34;16.45;;;7.32;;
45688;SDS011;31400;48.132;20.872;2024-01-15T14:19:00;17.35;;;7.82;;
45688;SDS011;31400;48.132;20.872;2024-01-15T14:21:27;18.13;;;10.48;;
45688;SDS011;31400;48.132;20.872;2024-01-15T14:23:53;22.20;;;12.45;;
45688;SDS011;31400;48.132;20.872;2024-01-15T14:26:19;23.33;;;14.27;;
45688;SDS011;31400;48.132;20.872;2024-01-15T14:28:45;31.05;;;14.15;;
45688;SDS011;31400;48.132;20.872;2024-01-15T14:31:12;27.55;;;15.57;;
45688;SDS011;31400;48.132;20.872;2024-01-15T14:33:38;38.22;;;18.25;;
45688;SDS011;31400;48.132;20.872;2024-01-15T14:36:04;30.33;;;13.85;;
45688;SDS011;31400;48.132;20.872;2024-01-15T14:38:30;21.73;;;12.13;;
45688;SDS011;31400;48.132;20.872;2024-01-15T14:40:56;22.23;;;9.98;;
45688;SDS011;31400;48.132;20.872;2024-01-15T14:43:22;21.30;;;11.13;;
45688;SDS011;31400;48.132;20.872;2024-01-15T14:45:48;23.20;;;11.18;;
45688;SDS011;31400;48.132;20.872;2024-01-15T14:48:14;30.02;;;15.40;;
45688;SDS011;31400;48.132;20.872;2024-01-15T14:50:40;15.35;;;8.13;;
45688;SDS011;31400;48.132;20.872;2024-01-15T14:53:06;34.42;;;17.20;;
45688;SDS011;31400;48.132;20.872;2024-01-15T14:55:32;33.28;;;18.15;;
45688;SDS011;31400;48.132;20.872;2024-01-15T14:57:58;41.97;;;19.55;;
45688;SDS011;31400;48.132;20.872;2024-01-15T15:02:50;27.10;;;12.80;;
45688;SDS011;31400;48.132;20.872;2024-01-15T15:05:16;19.27;;;8.45;;
45688;SDS011;31400;48.132;20.872;2024-01-15T15:07:43;20.02;;;10.90;;
45688;SDS011;31400;48.132;20.872;2024-01-15T15:10:09;26.75;;;14.07;;
45688;SDS011;31400;48.132;20.872;2024-01-15T15:12:36;32.80;;;15.98;;
45688;SDS011;31400;48.132;20.872;2024-01-15T15:15:02;47.42;;;20.45;;
45688;SDS011;31400;48.132;20.872;2024-01-15T15:17:28;51.22;;;23.55;;
45688;SDS011;31400;48.132;20.872;2024-01-15T15:19:54;50.05;;;25.17;;
45688;SDS011;31400;48.132;20.872;2024-01-15T15:22:21;56.67;;;27.90;;
45688;SDS011;31400;48.132;20.872;2024-01-15T15:24:47;44.95;;;22.92;;
45688;SDS011;31400;48.132;20.872;2024-01-15T15:27:13;31.73;;;14.85;;